x

Lake Nipissing (45152) Wave Buoy

4:00am - Tue 16th Sep 2014 All times are CDT. -5 hours from GMT.

  • Sig Wave height 0.3ft
  • Peak Period 2s
  • Wind
    9mph, 11mph gusts
  • Sea Temp 64°f
  • Air Temp 51°f
  • Sea Pressure 1016.1mb
  • Lake Nipissing
  • Lake Nipissing

More Historic Weather Station data

Upgrade to MSW Pro to gain access to the past 30 days of data for over 8000 Wavebouys and Weather Stations around the globe.

Join Pro

Comparision Forecast

View Surf forecast
   
Tue 09/16 4:00am 0.3ft 2s 9 11 mph 1016.1mb 64f 51f
3:00am 0.3ft 2s 9 11 mph 1016.2mb 64f 52f
2:00am  -  3s 7 9 mph 1016.2mb 64f 53f
1:00am  -  2s 4 7 mph 1016.1mb 64f 56f
12:00am 0.3ft 2s 4 7 mph 1016.2mb 64f 56f
Mon 09/15 11:00pm 0.3ft 2s 4 7 mph 1016.3mb 64f 56f
10:00pm 0.7ft 2s 9 11 mph 1016.4mb 64f 57f
9:00pm 0.7ft 2s 11 13 mph 1016.5mb 64f 56f
8:00pm 0.7ft 2s 13 18 mph 1016.2mb 64f 56f
7:00pm 0.7ft 2s 13 16 mph 1015.8mb 64f 57f
6:00pm 1ft 3s 11 13 mph 1015.4mb 64f 59f
5:00pm 1.3ft 3s 13 18 mph 1015.4mb 64f 60f
4:00pm 1.3ft 2s 16 20 mph 1015mb 64f 62f
3:00pm 1ft 2s 16 18 mph 1015.4mb 64f 61f
2:00pm 1.3ft 3s 13 18 mph 1015.6mb 64f 58f
1:00pm 1ft 3s 16 18 mph 1015.7mb 64f 60f
12:00pm 1.3ft 3s 13 18 mph 1016.3mb 64f 59f
11:00am 1ft 2s 18 22 mph 1016.5mb 64f 60f
10:00am 0.7ft 2s 13 18 mph 1017mb 64f 59f
9:00am 0.7ft 2s 16 20 mph 1017.5mb 64f 57f
8:00am 0.7ft 2s 13 18 mph 1017.7mb 64f 56f
7:00am 0.7ft 2s 16 18 mph 1018.1mb 64f 55f
6:00am 0.7ft 2s 16 20 mph 1018.3mb 64f 54f
5:00am 0.7ft 2s 13 16 mph 1018.5mb 64f 54f
4:00am 0.7ft 2s 13 18 mph 1018.8mb 64f 53f
3:00am 0.3ft 2s 13 16 mph 1019mb 64f 53f
2:00am 0.3ft 2s 13 16 mph 1019.5mb 64f 54f
1:00am 0.3ft 2s 11 13 mph 1020.1mb 64f 53f
12:00am 0.3ft 3s 9 13 mph 1020.4mb 64f 53f
Sun 09/14 11:00pm 0.3ft 3s 9 11 mph 1020.5mb 64f 52f
10:00pm 0.3ft 2s 11 13 mph 1020.8mb 64f 52f
9:00pm 0.7ft 2s 11 16 mph 1021.1mb 64f 52f
8:00pm 0.3ft 3s 13 18 mph 1021.4mb 64f 52f
7:00pm 0.7ft 2s 13 16 mph 1021.7mb 64f 52f
6:00pm 0.7ft 2s 13 16 mph 1021.9mb 64f 52f
5:00pm 0.7ft 2s 18 22 mph 1022.2mb 64f 53f
4:00pm 0.7ft 2s 18 22 mph 1022.4mb 64f 55f
3:00pm 0.7ft 2s 13 18 mph 1022.8mb 64f 54f
2:00pm 0.3ft 2s 13 20 mph 1023.5mb 64f 54f
1:00pm 0.7ft 2s 13 16 mph 1024.5mb 64f 52f
12:00pm 0.3ft 2s 13 18 mph 1025mb 65f 52f
11:00am 0.3ft 2s 7 9 mph 1025.6mb 65f 53f
10:00am 0.3ft 2s 4 9 mph 1026.3mb 64f 51f
9:00am 0.3ft 2s 7 11 mph 1026.4mb 64f 49f
8:00am 0.3ft 2s 7 9 mph 1027.2mb 64f 47f
7:00am 0.7ft 2s 9
mph
1027.2mb 64f 46f
6:00am 0.3ft 2s 9 13 mph 1027.5mb 64f 47f
5:00am  -  2s 9 11 mph 1026.9mb 64f 46f
4:00am  -  2s 2 7 mph 1026.6mb 64f 48f
3:00am 0.3ft 3s 7 9 mph 1027mb 64f 48f
2:00am 0.3ft 2s 2 4 mph 1027.1mb 65f 48f
1:00am 0.3ft 2s 4 7 mph 1026.6mb 65f 47f
12:00am 0.3ft 2s 7 11 mph 1026.3mb 65f 47f
Sat 09/13 11:00pm 0.3ft 2s 7 9 mph 1026mb 65f 48f
10:00pm 0.3ft 2s 7 11 mph 1025.4mb 65f 48f
9:00pm 0.3ft 2s 7 9 mph 1025mb 65f 49f
8:00pm 0.3ft 2s 11 13 mph 1024.8mb 65f 49f
7:00pm 0.3ft 2s 9 13 mph 1024.3mb 65f 49f
6:00pm 0.3ft 2s 11 16 mph 1023.5mb 65f 49f
5:00pm 0.3ft 2s 9 13 mph 1023mb 65f 50f
4:00pm 0.3ft 2s 9 16 mph 1022.8mb 65f 49f
3:00pm 0.3ft 2s 7 11 mph 1022.3mb 65f 47f
2:00pm 0.7ft 2s 9 13 mph 1021.8mb 65f 46f
1:00pm 1ft 2s 9 13 mph 1021.8mb 65f 45f
12:00pm 1ft 2s 13 16 mph 1021.8mb 65f 45f
11:00am 1ft 3s 13 16 mph 1021.9mb 65f 45f
10:00am 1.3ft 3s 9 13 mph 1022.3mb 65f 46f
9:00am 1.3ft 3s 16 20 mph 1022.5mb 65f 46f
8:00am 1.6ft 3s 16 25 mph 1022.6mb 65f 46f
7:00am 1.6ft 3s 18 22 mph 1022.6mb 65f 47f
6:00am 1.3ft 3s 20 25 mph 1022.8mb 65f 48f
5:00am 1ft 3s 16 20 mph 1023.5mb 65f 49f
4:00am 1ft 3s 16 20 mph 1024.2mb 65f 49f
3:00am 1ft 3s 13 18 mph 1023.6mb 65f 51f
2:00am 1ft 2s 16 20 mph 1024mb 65f 52f
1:00am 1ft 2s 13 18 mph 1024.8mb 65f 53f
12:00am 0.7ft 2s 11 16 mph 1024.7mb 65f 53f
Fri 09/12 11:00pm 0.3ft 2s 11 16 mph 1025.1mb 66f 53f
10:00pm 0.3ft 2s 7 11 mph 1025.7mb 66f 53f
9:00pm 0.3ft 2s 7 9 mph 1026.5mb 66f 52f
8:00pm 0.7ft 2s 7 11 mph 1026.4mb 66f 53f
7:00pm 0.3ft 2s 7 9 mph 1025.7mb 66f 52f
6:00pm 0.3ft 2s 9
mph
1026.1mb 66f 51f
5:00pm  -  2s 2 4 mph 1026.2mb 66f 52f
4:00pm 0.3ft 2s 2 4 mph 1026.2mb 66f 52f
3:00pm 0.3ft 2s 2 4 mph 1026.7mb 66f 52f
2:00pm 0.3ft 2s 7 13 mph 1026.7mb 66f 51f
1:00pm 0.7ft 2s 4 7 mph 1027.3mb 66f 50f
12:00pm 1ft 3s 4 13 mph 1027.6mb 65f 49f
11:00am 0.7ft 3s 11 18 mph 1027.7mb 65f 49f